Time;durP1;ratioP1;P1;durP2;ratioP2;P2;SDS_P1;SDS_P2;PMS_P1;PMS_P2;Temp;Humidity;BMP_temperature;BMP_pressure;BME280_temperature;BME280_humidity;BME280_pressure;Samples;Min_cycle;Max_cycle;Signal;HPM_P1;HPM_P2
2022/06/06 00:01:41;;;;;;;1.35;0.30;;;13.40;53.80;;;;;;5013559;28;20488;-61
2022/06/06 00:04:08;;;;;;;0.20;0.17;;;13.40;53.20;;;;;;5013372;28;20032;-60
2022/06/06 00:06:35;;;;;;;0.20;0.20;;;13.40;53.70;;;;;;4995644;28;20033;-61
2022/06/06 00:09:03;;;;;;;0.30;0.30;;;13.50;52.40;;;;;;4995267;28;20046;-61
2022/06/06 00:11:34;;;;;;;0.15;0.10;;;13.60;52.70;;;;;;5013683;28;20029;-60
2022/06/06 00:14:02;;;;;;;0.50;0.30;;;13.70;51.80;;;;;;5013582;28;20040;-60
2022/06/06 00:16:30;;;;;;;6.72;0.60;;;13.80;51.90;;;;;;5013518;28;20066;-60
2022/06/06 00:18:57;;;;;;;0.88;0.30;;;13.80;51.40;;;;;;5013011;28;20405;-61
2022/06/06 00:21:25;;;;;;;0.45;0.20;;;13.90;51.00;;;;;;5013019;28;20022;-60
2022/06/06 00:23:56;;;;;;;0.47;0.20;;;13.90;49.30;;;;;;5012978;28;20502;-60
2022/06/06 00:26:23;;;;;;;3.15;0.20;;;13.90;50.20;;;;;;5013053;28;20033;-61
2022/06/06 00:28:50;;;;;;;3.97;0.20;;;14.00;50.30;;;;;;5012918;28;20034;-60
2022/06/06 00:36:48;;;;;;;0.38;0.20;;;14.10;50.90;;;;;;5012735;28;20530;-60
2022/06/06 00:39:18;;;;;;;1.15;0.40;;;14.20;50.00;;;;;;5012641;28;20026;-61
2022/06/06 00:41:49;;;;;;;2.00;0.40;;;14.30;51.40;;;;;;5013028;28;20072;-60
2022/06/06 00:44:28;;;;;;;0.35;0.25;;;14.40;50.30;;;;;;5012417;28;20053;-60
2022/06/06 00:47:25;;;;;;;0.90;0.40;;;14.40;50.90;;;;;;5012760;28;20026;-62
2022/06/06 00:50:14;;;;;;;0.15;0.15;;;14.50;50.20;;;;;;4995140;28;20349;-60
2022/06/06 00:52:46;;;;;;;0.10;0.10;;;14.50;50.10;;;;;;5009206;28;20062;-60
2022/06/06 00:55:20;;;;;;;0.98;0.17;;;14.60;50.00;;;;;;5002234;28;20080;-61
2022/06/06 00:57:55;;;;;;;3.15;1.02;;;14.60;49.50;;;;;;4993841;28;20026;-61
2022/06/06 01:00:23;;;;;;;1.33;0.52;;;14.60;49.60;;;;;;5008830;28;20110;-60
2022/06/06 01:02:56;;;;;;;2.05;0.90;;;14.70;50.00;;;;;;5003604;28;20049;-61
2022/06/06 01:05:24;;;;;;;0.13;0.13;;;14.80;50.70;;;;;;5008976;28;20476;-63
2022/06/06 01:07:52;;;;;;;0.38;0.35;;;14.80;49.30;;;;;;5007885;28;20539;-60
2022/06/06 01:10:20;;;;;;;0.40;0.20;;;14.90;49.40;;;;;;5010711;28;20104;-62
2022/06/06 01:12:51;;;;;;;4.97;0.20;;;14.90;49.30;;;;;;5007661;28;20434;-62
2022/06/06 01:15:22;;;;;;;1.20;0.30;;;14.90;48.30;;;;;;5007920;28;20105;-61
2022/06/06 01:18:09;;;;;;;0.38;0.20;;;14.90;48.80;;;;;;4990425;28;20030;-61
2022/06/06 01:20:39;;;;;;;0.25;0.20;;;14.90;49.00;;;;;;5009667;28;20053;-62
2022/06/06 01:23:18;;;;;;;0.22;0.10;;;14.90;49.60;;;;;;5008798;28;20032;-61
2022/06/06 01:26:38;;;;;;;0.28;0.20;;;15.00;48.70;;;;;;5010138;28;20432;-61
2022/06/06 01:29:12;;;;;;;1.52;0.45;;;15.00;48.70;;;;;;4972518;28;20364;-61
2022/06/06 01:31:57;;;;;;;0.33;0.20;;;15.10;48.70;;;;;;5008604;28;20018;-61
2022/06/06 01:34:25;;;;;;;;;;;15.10;48.90;;;;;;5009970;28;20029;-61
2022/06/06 01:36:54;;;;;;;0.20;0.20;;;15.10;47.50;;;;;;5008875;28;19910;-61
2022/06/06 01:39:23;;;;;;;0.20;0.20;;;15.10;48.70;;;;;;5009143;28;20494;-61
2022/06/06 01:42:21;;;;;;;0.10;0.10;;;15.20;49.00;;;;;;5009848;28;20021;-60
2022/06/06 01:44:58;;;;;;;0.20;0.20;;;15.20;48.70;;;;;;5009591;28;20026;-60
2022/06/06 01:47:31;;;;;;;0.88;0.20;;;15.30;48.80;;;;;;4991771;28;20040;-62
2022/06/06 01:50:00;;;;;;;0.32;0.30;;;15.40;48.30;;;;;;5009909;28;20092;-60
2022/06/06 01:52:28;;;;;;;0.20;0.20;;;15.40;48.70;;;;;;4991834;28;20036;-59
2022/06/06 01:54:57;;;;;;;0.22;0.10;;;15.40;48.70;;;;;;5009167;28;20026;-59
2022/06/06 01:57:26;;;;;;;2.63;0.13;;;15.40;48.30;;;;;;5009119;28;20472;-61
2022/06/06 01:59:53;;;;;;;1.10;0.20;;;15.40;48.50;;;;;;5010820;28;20426;-60
2022/06/06 02:02:21;;;;;;;0.68;0.22;;;15.50;49.30;;;;;;5017906;28;20021;-60
2022/06/06 02:04:48;;;;;;;0.20;0.20;;;15.60;48.20;;;;;;5024496;28;20539;-60
2022/06/06 02:07:15;;;;;;;0.43;0.40;;;15.60;48.70;;;;;;5018596;28;20037;-61
2022/06/06 02:09:42;;;;;;;0.32;0.20;;;15.70;49.70;;;;;;5012530;28;20065;-60
2022/06/06 02:12:10;;;;;;;0.40;0.40;;;15.90;48.40;;;;;;5008660;28;20391;-60
2022/06/06 02:14:38;;;;;;;0.50;0.50;;;15.90;48.90;;;;;;5008348;28;20026;-61
2022/06/06 02:17:06;;;;;;;0.45;0.20;;;15.90;48.20;;;;;;5007872;28;20033;-60
2022/06/06 02:19:34;;;;;;;0.40;0.20;;;16.00;48.50;;;;;;5010180;28;20037;-60
2022/06/06 02:22:01;;;;;;;0.10;0.10;;;16.10;48.50;;;;;;5008866;28;20356;-61
2022/06/06 02:24:28;;;;;;;1.08;0.38;;;16.10;48.30;;;;;;5010502;28;20034;-60
2022/06/06 02:26:57;;;;;;;0.63;0.20;;;15.90;47.00;;;;;;5015851;28;20018;-61
2022/06/06 02:29:25;;;;;;;0.68;0.28;;;15.90;49.40;;;;;;5026045;28;20117;-60
2022/06/06 02:31:52;;;;;;;0.70;0.30;;;16.00;49.20;;;;;;5011033;28;20408;-60
2022/06/06 02:34:19;;;;;;;0.50;0.30;;;16.00;48.00;;;;;;5022948;28;20025;-61
2022/06/06 02:36:46;;;;;;;0.32;0.30;;;16.10;48.70;;;;;;5016594;28;20048;-61
2022/06/06 02:39:14;;;;;;;0.20;0.20;;;16.00;47.60;;;;;;5016512;28;20109;-61
2022/06/06 02:41:42;;;;;;;0.30;0.20;;;16.10;47.70;;;;;;5017087;28;20059;-61
2022/06/06 02:44:09;;;;;;;0.15;0.15;;;16.10;47.70;;;;;;5015174;28;20445;-61
2022/06/06 02:46:37;;;;;;;1.55;0.20;;;16.10;48.30;;;;;;5013196;28;20490;-62
2022/06/06 02:49:04;;;;;;;0.22;0.20;;;16.10;48.10;;;;;;5009451;28;20069;-60
2022/06/06 02:51:31;;;;;;;0.20;0.10;;;16.20;49.00;;;;;;5010282;28;20071;-61
2022/06/06 02:54:00;;;;;;;3.42;0.43;;;16.20;48.40;;;;;;5015604;28;20380;-60
2022/06/06 02:56:28;;;;;;;0.95;0.30;;;16.20;48.80;;;;;;4998508;28;20030;-61
2022/06/06 02:59:04;;;;;;;2.72;0.30;;;16.30;49.00;;;;;;5016870;28;20037;-60
2022/06/06 03:01:32;;;;;;;2.83;0.38;;;16.30;48.70;;;;;;5011259;28;20030;-61
2022/06/06 03:03:59;;;;;;;1.00;0.40;;;16.40;48.60;;;;;;4988297;28;20616;-62
2022/06/06 03:06:47;;;;;;;0.45;0.35;;;16.40;48.00;;;;;;5007264;28;20037;-62
2022/06/06 03:09:36;;;;;;;0.70;0.22;;;16.30;46.90;;;;;;5011128;28;20139;-61
2022/06/06 03:12:12;;;;;;;0.75;0.32;;;16.40;47.70;;;;;;5002504;28;20029;-63
2022/06/06 03:15:00;;;;;;;3.40;0.30;;;16.30;47.90;;;;;;5009415;28;20047;-62
2022/06/06 03:23:09;;;;;;;;;;;16.20;46.80;;;;;;5001702;28;20110;-62
2022/06/06 03:26:08;;;;;;;1.75;0.82;;;16.10;47.80;;;;;;5018108;28;20281;-62
2022/06/06 03:29:08;;;;;;;5.65;1.00;;;16.20;49.00;;;;;;5018908;28;20033;-64
2022/06/06 03:31:57;;;;;;;0.50;0.50;;;16.20;48.90;;;;;;5007758;28;20042;-61
2022/06/06 03:34:24;;;;;;;2.10;0.30;;;16.20;49.20;;;;;;5004228;28;20390;-62
2022/06/06 03:37:16;;;;;;;1.45;0.35;;;16.30;48.40;;;;;;5009101;28;20018;-62
2022/06/06 03:39:52;;;;;;;1.80;0.30;;;16.30;48.90;;;;;;5009498;28;20022;-62
2022/06/06 03:42:58;;;;;;;0.57;0.40;;;16.20;48.20;;;;;;4991252;28;20406;-59
2022/06/06 03:46:00;;;;;;;0.35;0.20;;;16.20;47.60;;;;;;4919896;29;20059;-59
2022/06/06 03:48:45;;;;;;;0.70;0.38;;;16.20;48.00;;;;;;5023551;28;20054;-60
2022/06/06 03:51:24;;;;;;;0.57;0.40;;;16.20;48.00;;;;;;5012802;28;20026;-60
2022/06/06 03:54:05;;;;;;;0.55;0.40;;;16.20;48.80;;;;;;5007338;28;20095;-61
2022/06/06 03:57:09;;;;;;;1.85;0.40;;;16.20;48.10;;;;;;5007622;28;20041;-66
2022/06/06 03:59:38;;;;;;;0.55;0.40;;;16.20;47.30;;;;;;4990882;28;20037;-64
2022/06/06 04:02:09;;;;;;;0.30;0.20;;;16.20;46.80;;;;;;4997371;28;20030;-64
2022/06/06 04:04:36;;;;;;;0.47;0.25;;;16.30;47.20;;;;;;5010550;28;20088;-63
2022/06/06 04:07:04;;;;;;;0.20;0.20;;;16.30;47.50;;;;;;5020985;28;20026;-60
2022/06/06 04:09:35;;;;;;;3.90;0.70;;;16.30;45.00;;;;;;5014925;28;20388;-57
2022/06/06 04:12:32;;;;;;;0.20;0.10;;;16.20;43.30;;;;;;5011342;28;20034;-60
2022/06/06 04:15:47;;;;;;;1.65;0.30;;;16.10;43.70;;;;;;5005651;28;20079;-58
2022/06/06 04:18:32;;;;;;;0.65;0.20;;;16.10;42.50;;;;;;5012553;28;20018;-53
2022/06/06 04:21:14;;;;;;;0.77;0.40;;;16.00;43.70;;;;;;5008934;28;20116;-58
2022/06/06 04:24:03;;;;;;;0.20;0.20;;;16.00;44.10;;;;;;5015282;28;20064;-59
2022/06/06 04:27:07;;;;;;;0.10;0.10;;;15.90;44.20;;;;;;5012821;28;20045;-61
2022/06/06 04:29:43;;;;;;;1.25;0.10;;;15.90;44.00;;;;;;5014153;28;20080;-60
2022/06/06 04:32:37;;;;;;;0.20;0.20;;;15.90;44.80;;;;;;5017740;28;20021;-59
2022/06/06 04:36:08;;;;;;;0.47;0.40;;;15.80;43.50;;;;;;5008108;28;20032;-59
2022/06/06 04:39:17;;;;;;;0.43;0.20;;;15.80;44.00;;;;;;4887246;29;20097;-61
2022/06/06 04:42:25;;;;;;;0.68;0.30;;;15.80;44.40;;;;;;5000779;28;20116;-59
2022/06/06 04:45:13;;;;;;;1.52;0.17;;;15.70;44.50;;;;;;5009882;28;20022;-59
2022/06/06 04:47:42;;;;;;;3.08;0.93;;;15.70;42.60;;;;;;5012904;28;20392;-59
2022/06/06 04:50:20;;;;;;;0.98;0.40;;;15.70;45.90;;;;;;5011780;28;20037;-60
2022/06/06 04:52:56;;;;;;;1.10;0.38;;;15.60;46.30;;;;;;4997878;28;20034;-59
2022/06/06 04:55:25;;;;;;;3.10;0.50;;;15.60;46.40;;;;;;5014062;28;20061;-59
2022/06/06 04:57:55;;;;;;;1.55;0.40;;;15.60;45.50;;;;;;5023570;28;20028;-59
2022/06/06 05:00:24;;;;;;;2.20;0.25;;;15.60;46.60;;;;;;5011783;28;20025;-58
2022/06/06 05:02:52;;;;;;;0.73;0.30;;;15.60;45.70;;;;;;5010830;28;20034;-59
2022/06/06 05:05:22;;;;;;;0.20;0.20;;;15.50;45.50;;;;;;5015339;28;20089;-59
2022/06/06 05:08:13;;;;;;;0.20;0.20;;;15.40;45.40;;;;;;5015059;28;20030;-58
2022/06/06 05:10:54;;;;;;;0.60;0.28;;;15.40;45.30;;;;;;5014525;28;20069;-59
2022/06/06 05:13:36;;;;;;;0.63;0.30;;;15.40;45.10;;;;;;5013960;28;20197;-59
2022/06/06 05:16:18;;;;;;;0.28;0.20;;;15.40;44.00;;;;;;5016889;28;20032;-59
2022/06/06 05:19:10;;;;;;;0.20;0.20;;;15.30;43.70;;;;;;5010250;28;20030;-58
2022/06/06 05:22:05;;;;;;;1.65;0.60;;;15.30;43.40;;;;;;5009897;28;20029;-59
2022/06/06 05:24:57;;;;;;;0.25;0.20;;;15.20;44.30;;;;;;5017487;28;20029;-59
2022/06/06 05:28:02;;;;;;;1.27;0.50;;;15.20;42.50;;;;;;5002214;28;20473;-58
2022/06/06 05:30:53;;;;;;;2.80;1.50;;;15.10;42.80;;;;;;5007921;28;20026;-58
2022/06/06 05:33:45;;;;;;;1.08;0.25;;;15.10;41.70;;;;;;5021363;28;20017;-61
2022/06/06 05:36:23;;;;;;;0.57;0.30;;;15.10;40.70;;;;;;5021211;28;20479;-59
2022/06/06 05:39:10;;;;;;;0.30;0.10;;;15.10;40.60;;;;;;5019274;28;20036;-62
2022/06/06 05:42:03;;;;;;;0.10;0.10;;;15.00;40.40;;;;;;5021537;28;20109;-58
2022/06/06 05:45:03;;;;;;;1.38;0.20;;;14.90;40.70;;;;;;4993353;28;20026;-61
2022/06/06 05:47:52;;;;;;;0.70;0.30;;;14.80;41.40;;;;;;5016422;28;20049;-60
2022/06/06 05:50:19;;;;;;;4.20;0.30;;;14.70;41.40;;;;;;5014885;28;20061;-60
2022/06/06 05:53:02;;;;;;;3.25;0.28;;;14.70;42.20;;;;;;5010794;28;20022;-60
2022/06/06 05:55:45;;;;;;;0.88;0.30;;;14.60;41.50;;;;;;5011083;28;20057;-61
2022/06/06 05:58:28;;;;;;;0.28;0.10;;;14.50;42.80;;;;;;5004107;28;20030;-60
2022/06/06 06:00:58;;;;;;;0.77;0.30;;;14.50;42.20;;;;;;4992830;28;20091;-62
2022/06/06 06:03:43;;;;;;;0.47;0.20;;;14.40;43.00;;;;;;5009540;28;20025;-62
2022/06/06 06:06:25;;;;;;;0.47;0.20;;;14.30;42.20;;;;;;5010152;28;20049;-62
2022/06/06 06:09:15;;;;;;;1.83;0.30;;;14.30;43.00;;;;;;5001001;28;20205;-62
2022/06/06 06:12:19;;;;;;;0.32;0.30;;;14.10;43.70;;;;;;5010791;28;20374;-61
2022/06/06 06:15:16;;;;;;;2.13;1.00;;;14.10;42.70;;;;;;5008026;28;20040;-61
2022/06/06 06:17:45;;;;;;;0.82;0.50;;;14.00;43.30;;;;;;5016839;28;20494;-62
2022/06/06 06:20:16;;;;;;;0.38;0.28;;;14.00;43.60;;;;;;5021498;28;20068;-62
2022/06/06 06:23:05;;;;;;;2.92;0.30;;;13.90;43.30;;;;;;5014257;28;20084;-62
2022/06/06 06:25:38;;;;;;;1.10;0.57;;;13.80;43.80;;;;;;5009227;28;20054;-61
2022/06/06 06:28:11;;;;;;;2.88;0.47;;;13.70;44.10;;;;;;5018191;28;20021;-64
2022/06/06 06:30:50;;;;;;;1.25;0.40;;;13.60;44.90;;;;;;5015629;28;20387;-62
2022/06/06 06:33:34;;;;;;;0.77;0.35;;;13.50;45.00;;;;;;5013948;28;20099;-62
2022/06/06 06:36:30;;;;;;;0.25;0.22;;;13.40;44.90;;;;;;5021787;28;20033;-62
2022/06/06 06:39:32;;;;;;;0.52;0.25;;;13.40;45.30;;;;;;5024967;28;20491;-61
2022/06/06 06:42:31;;;;;;;2.20;0.43;;;13.20;45.60;;;;;;5008369;28;20030;-61
2022/06/06 06:45:09;;;;;;;1.23;0.30;;;13.00;47.20;;;;;;5008730;28;20053;-61
2022/06/06 06:47:38;;;;;;;0.82;0.28;;;12.80;46.60;;;;;;5013178;28;20022;-62
2022/06/06 06:50:30;;;;;;;2.05;0.38;;;12.80;46.60;;;;;;5013966;28;20044;-62
2022/06/06 06:53:30;;;;;;;1.90;0.43;;;12.60;47.80;;;;;;5010839;28;20080;-62
2022/06/06 06:56:19;;;;;;;1.58;0.32;;;12.50;47.60;;;;;;5013554;28;20025;-61
2022/06/06 06:59:03;;;;;;;0.88;0.30;;;12.40;48.30;;;;;;5018736;28;20139;-61
2022/06/06 07:08:51;;;;;;;2.17;0.60;;;11.80;50.60;;;;;;5008714;28;20036;-64
2022/06/06 07:11:47;;;;;;;1.15;0.40;;;11.90;50.80;;;;;;5009618;28;20018;-62
2022/06/06 07:14:25;;;;;;;1.05;0.50;;;11.90;50.80;;;;;;4991843;28;20112;-62
2022/06/06 07:16:58;;;;;;;1.23;0.55;;;11.90;50.50;;;;;;5009512;28;20026;-61
2022/06/06 07:19:37;;;;;;;1.58;0.50;;;11.90;51.00;;;;;;5009749;28;20387;-62
2022/06/06 07:22:06;;;;;;;0.70;0.45;;;11.80;51.30;;;;;;4991773;28;20021;-62
2022/06/06 07:24:35;;;;;;;1.50;0.50;;;11.70;51.00;;;;;;5009603;28;20026;-62
2022/06/06 07:27:03;;;;;;;1.40;0.45;;;11.80;51.00;;;;;;5009804;28;20083;-62
2022/06/06 07:29:30;;;;;;;0.70;0.47;;;11.70;51.10;;;;;;5009684;28;20064;-61
2022/06/06 07:32:06;;;;;;;2.00;0.45;;;11.70;51.60;;;;;;5009446;28;20054;-61
2022/06/06 07:34:56;;;;;;;1.45;0.60;;;11.60;52.60;;;;;;5008977;28;20034;-61
2022/06/06 07:37:48;;;;;;;0.63;0.40;;;11.50;52.60;;;;;;5009304;28;20511;-61
2022/06/06 07:40:40;;;;;;;2.33;0.32;;;11.50;52.90;;;;;;5009202;28;20034;-62
2022/06/06 07:43:16;;;;;;;3.45;0.30;;;11.50;53.20;;;;;;4994521;28;20021;-61
2022/06/06 07:45:49;;;;;;;1.98;0.50;;;11.50;53.00;;;;;;5009408;28;20100;-61
2022/06/06 07:48:32;;;;;;;0.70;0.20;;;11.50;53.50;;;;;;5008744;28;20113;-61
2022/06/06 07:51:06;;;;;;;1.60;0.47;;;11.60;53.50;;;;;;4993480;28;20018;-61
2022/06/06 07:53:54;;;;;;;10.25;2.00;;;11.50;53.70;;;;;;5009383;28;20048;-62
2022/06/06 07:56:38;;;;;;;6.90;2.58;;;11.20;54.20;;;;;;5009099;28;20476;-62
2022/06/06 07:59:26;;;;;;;4.28;0.77;;;10.90;54.60;;;;;;5015004;28;20026;-61
2022/06/06 08:01:57;;;;;;;1.80;0.80;;;10.70;56.30;;;;;;5009136;28;20072;-62
2022/06/06 08:04:47;;;;;;;2.63;0.98;;;10.60;56.20;;;;;;5005016;28;20116;-61
2022/06/06 08:07:50;;;;;;;4.03;1.15;;;10.40;56.90;;;;;;4995420;28;20455;-61
2022/06/06 08:10:22;;;;;;;3.47;0.90;;;10.20;57.90;;;;;;4997800;28;20772;-62
2022/06/06 08:13:12;;;;;;;5.35;0.75;;;10.20;58.00;;;;;;5006093;28;20104;-60
2022/06/06 08:15:57;;;;;;;3.10;0.70;;;10.20;58.30;;;;;;4972916;28;20138;-61
2022/06/06 08:19:02;;;;;;;2.40;1.13;;;10.30;58.40;;;;;;5005740;28;20068;-62
2022/06/06 08:21:37;;;;;;;1.67;0.70;;;10.20;58.60;;;;;;4978806;28;20168;-62
2022/06/06 08:24:10;;;;;;;1.00;0.68;;;10.10;58.80;;;;;;5008757;28;20420;-61
2022/06/06 08:26:41;;;;;;;1.02;0.50;;;10.00;59.10;;;;;;5009049;28;20038;-61
2022/06/06 08:29:10;;;;;;;3.78;0.77;;;10.00;60.10;;;;;;4990803;28;20510;-62
2022/06/06 08:31:37;;;;;;;1.75;0.70;;;9.90;60.30;;;;;;5008862;28;20034;-61
2022/06/06 08:34:05;;;;;;;1.35;0.57;;;9.90;59.90;;;;;;5006637;28;20037;-62
2022/06/06 08:36:51;;;;;;;1.48;0.60;;;10.10;59.70;;;;;;5004853;28;20026;-62
2022/06/06 08:39:30;;;;;;;2.15;0.50;;;10.10;59.50;;;;;;5005221;28;20034;-62
2022/06/06 08:42:13;;;;;;;2.42;0.60;;;10.10;59.90;;;;;;5008778;28;20081;-61
2022/06/06 08:45:10;;;;;;;1.30;0.50;;;10.10;59.00;;;;;;5009214;28;20040;-61
2022/06/06 08:48:14;;;;;;;1.25;0.60;;;10.10;58.90;;;;;;5006916;28;20561;-62
2022/06/06 08:50:59;;;;;;;1.40;0.55;;;10.00;59.70;;;;;;5008388;28;20034;-62
2022/06/06 08:53:57;;;;;;;5.03;0.82;;;9.90;59.50;;;;;;5003345;28;20057;-63
2022/06/06 08:56:42;;;;;;;3.15;1.02;;;9.80;60.00;;;;;;4989581;28;20026;-62
2022/06/06 08:59:30;;;;;;;4.38;0.93;;;9.70;59.90;;;;;;5004225;28;20022;-62
2022/06/06 09:02:48;;;;;;;1.30;0.60;;;9.50;61.00;;;;;;5008843;28;20030;-61
2022/06/06 09:05:24;;;;;;;3.63;1.10;;;9.50;60.90;;;;;;4986328;28;20046;-61
2022/06/06 09:08:15;;;;;;;1.60;0.73;;;9.50;60.90;;;;;;5008767;28;20053;-62
2022/06/06 09:10:45;;;;;;;5.28;0.98;;;9.50;60.70;;;;;;5008223;28;20038;-62
2022/06/06 09:14:01;;;;;;;2.67;0.80;;;9.30;61.30;;;;;;5008499;28;20048;-62
2022/06/06 09:16:47;;;;;;;2.85;0.60;;;9.20;61.70;;;;;;4952320;28;20563;-63
2022/06/06 09:19:43;;;;;;;2.05;0.65;;;9.20;62.10;;;;;;4995045;28;20018;-62
2022/06/06 09:22:30;;;;;;;3.58;1.92;;;9.10;62.30;;;;;;5008921;28;20029;-61
2022/06/06 09:25:35;;;;;;;2.72;1.20;;;9.00;63.00;;;;;;4980622;28;20040;-61
2022/06/06 09:28:35;;;;;;;2.65;1.08;;;8.90;63.60;;;;;;5008477;28;20452;-62
2022/06/06 09:31:36;;;;;;;2.28;0.90;;;8.80;63.50;;;;;;4993093;28;20026;-65
2022/06/06 09:34:18;;;;;;;3.67;0.90;;;8.80;63.90;;;;;;4991274;28;20037;-61
2022/06/06 09:36:54;;;;;;;7.85;1.30;;;8.80;64.30;;;;;;4991084;28;20045;-64
2022/06/06 09:39:31;;;;;;;3.78;0.85;;;8.80;63.90;;;;;;4989410;28;20041;-61
2022/06/06 09:42:10;;;;;;;4.82;1.00;;;8.80;63.80;;;;;;5008388;28;20033;-61
2022/06/06 09:45:14;;;;;;;2.42;1.00;;;8.80;64.40;;;;;;5006390;28;20113;-61
2022/06/06 09:48:05;;;;;;;6.35;1.00;;;8.90;64.10;;;;;;4988932;28;20129;-61
2022/06/06 09:51:09;;;;;;;1.83;1.05;;;9.10;63.50;;;;;;5000721;28;20183;-61
2022/06/06 10:00:27;;;;;;;3.05;1.00;;;8.90;64.40;;;;;;5004448;28;20060;-62
2022/06/06 10:03:16;;;;;;;4.97;1.02;;;8.80;64.90;;;;;;5003183;28;20029;-62
2022/06/06 10:06:10;;;;;;;9.15;1.35;;;8.70;65.20;;;;;;5007636;28;20069;-61
2022/06/06 10:08:49;;;;;;;3.20;0.95;;;8.50;66.10;;;;;;5007500;28;20796;-62
2022/06/06 10:11:35;;;;;;;2.92;1.25;;;8.40;66.00;;;;;;5010067;28;20478;-61
2022/06/06 10:14:23;;;;;;;4.53;1.20;;;8.20;66.50;;;;;;5003793;28;20393;-61
2022/06/06 10:16:59;;;;;;;6.38;1.65;;;8.10;67.50;;;;;;5009496;28;20128;-60
2022/06/06 10:19:50;;;;;;;3.97;1.17;;;8.00;68.20;;;;;;5006593;28;20037;-62
2022/06/06 10:22:29;;;;;;;5.53;1.35;;;8.00;69.20;;;;;;5007138;28;20188;-61
2022/06/06 10:25:36;;;;;;;3.95;1.08;;;7.90;69.00;;;;;;5007901;28;20018;-61
2022/06/06 10:28:41;;;;;;;4.68;1.13;;;7.70;69.20;;;;;;5003776;28;20014;-61
2022/06/06 10:31:48;;;;;;;2.83;1.20;;;7.60;70.20;;;;;;5016610;28;20467;-60
2022/06/06 10:34:27;;;;;;;6.28;1.38;;;7.50;70.70;;;;;;5004954;28;20042;-61
2022/06/06 10:37:11;;;;;;;6.43;1.45;;;7.40;72.10;;;;;;5005962;28;20080;-61
2022/06/06 10:39:57;;;;;;;4.90;1.58;;;7.40;72.00;;;;;;5004168;28;20053;-60
2022/06/06 10:42:51;;;;;;;6.57;1.08;;;7.30;71.90;;;;;;5005215;28;20111;-61
2022/06/06 10:45:38;;;;;;;5.15;1.98;;;7.30;72.40;;;;;;4984210;28;20033;-61
2022/06/06 10:48:11;;;;;;;2.20;0.93;;;7.30;72.50;;;;;;5005961;28;20058;-61
2022/06/06 10:54:28;;;;;;;4.72;1.15;;;7.20;73.20;;;;;;5001731;28;20088;-60
2022/06/06 10:57:13;;;;;;;7.13;1.15;;;7.10;73.40;;;;;;4990790;28;20034;-60
2022/06/06 11:00:09;;;;;;;9.02;1.20;;;7.20;74.00;;;;;;5007212;28;20033;-60
2022/06/06 11:02:42;;;;;;;4.85;1.00;;;7.30;73.30;;;;;;5013625;28;20562;-61
2022/06/06 11:05:21;;;;;;;2.88;0.98;;;7.50;72.80;;;;;;5012232;28;20054;-61
2022/06/06 11:08:35;;;;;;;2.17;1.10;;;7.90;70.40;;;;;;5005289;28;20129;-61
2022/06/06 11:11:32;;;;;;;5.95;1.20;;;7.90;69.30;;;;;;4962312;28;20061;-61
2022/06/06 11:14:05;;;;;;;6.03;1.27;;;7.90;70.20;;;;;;5002282;28;20034;-61
2022/06/06 11:17:07;;;;;;;4.32;0.93;;;7.90;69.60;;;;;;4986242;28;20030;-61
2022/06/06 11:20:09;;;;;;;4.32;0.93;;;8.10;70.10;;;;;;4997394;28;20049;-64
2022/06/06 11:22:44;;;;;;;7.45;1.10;;;8.10;69.20;;;;;;4983504;28;20481;-61
2022/06/06 11:25:20;;;;;;;1.60;0.70;;;8.10;69.30;;;;;;5006158;28;20105;-61
2022/06/06 11:28:06;;;;;;;2.05;1.20;;;8.00;69.50;;;;;;5004192;28;20029;-62
2022/06/06 11:31:10;;;;;;;3.28;1.42;;;8.10;69.60;;;;;;5003994;28;20129;-61
2022/06/06 11:34:32;;;;;;;4.05;0.93;;;8.10;69.50;;;;;;4995857;28;20033;-61
2022/06/06 11:37:49;;;;;;;2.75;0.80;;;8.20;69.60;;;;;;4914957;29;20044;-61
2022/06/06 11:40:45;;;;;;;6.45;0.77;;;8.20;69.40;;;;;;5011161;28;20033;-60
2022/06/06 11:43:42;;;;;;;3.40;0.85;;;8.30;68.50;;;;;;5009431;28;20037;-61
2022/06/06 11:46:31;;;;;;;2.17;0.90;;;8.40;69.00;;;;;;5009646;28;20056;-60
2022/06/06 11:49:30;;;;;;;2.45;0.90;;;8.50;68.80;;;;;;4988058;28;20410;-61
2022/06/06 11:52:20;;;;;;;2.50;1.17;;;8.60;68.50;;;;;;5005887;28;20033;-61
2022/06/06 11:55:37;;;;;;;5.07;0.65;;;8.70;67.90;;;;;;4997189;28;20042;-61
2022/06/06 11:58:04;;;;;;;1.67;0.70;;;8.60;67.70;;;;;;4966059;28;20169;-62
2022/06/06 12:00:49;;;;;;;5.07;0.90;;;8.50;68.30;;;;;;5007497;28;20033;-61
2022/06/06 12:03:47;;;;;;;5.32;1.35;;;8.50;68.80;;;;;;5011791;28;20097;-61
2022/06/06 12:06:17;;;;;;;3.85;1.08;;;8.50;68.30;;;;;;4993450;28;20446;-62
2022/06/06 12:09:00;;;;;;;6.20;1.17;;;8.40;67.90;;;;;;4992849;28;20042;-62
2022/06/06 12:12:07;;;;;;;2.38;0.77;;;8.40;68.40;;;;;;5008255;28;20041;-61
2022/06/06 12:15:08;;;;;;;2.20;0.82;;;8.30;68.70;;;;;;5012801;28;20037;-61
2022/06/06 12:17:38;;;;;;;5.05;1.30;;;8.50;68.20;;;;;;5014119;28;20030;-61
2022/06/06 12:20:29;;;;;;;2.28;0.85;;;8.40;67.90;;;;;;5013521;28;20041;-62
2022/06/06 12:22:59;;;;;;;3.63;0.88;;;8.40;68.10;;;;;;5008694;28;20029;-61
2022/06/06 12:26:08;;;;;;;2.72;0.75;;;8.40;67.60;;;;;;5009591;28;20030;-61
2022/06/06 12:28:35;;;;;;;3.42;0.80;;;8.30;68.10;;;;;;4992307;28;20578;-62
2022/06/06 12:31:22;;;;;;;1.83;0.75;;;8.40;67.40;;;;;;5013808;28;20435;-62
2022/06/06 12:34:04;;;;;;;2.20;0.40;;;8.50;67.30;;;;;;5013126;28;20556;-62
2022/06/06 12:36:45;;;;;;;3.30;0.75;;;8.60;67.10;;;;;;5011498;28;20032;-62
2022/06/06 12:39:15;;;;;;;3.15;0.90;;;8.60;66.70;;;;;;5014995;28;20130;-62
2022/06/06 12:41:55;;;;;;;2.67;1.00;;;8.50;68.10;;;;;;5022773;28;20478;-62
2022/06/06 12:44:28;;;;;;;3.78;1.10;;;8.40;67.50;;;;;;5010850;28;20395;-62
2022/06/06 12:47:20;;;;;;;1.65;0.70;;;8.30;68.40;;;;;;5014142;28;20482;-62
2022/06/06 12:49:56;;;;;;;3.15;1.00;;;8.40;67.40;;;;;;5021371;28;20550;-62
2022/06/06 12:52:34;;;;;;;2.30;0.90;;;8.30;66.90;;;;;;5014810;28;20045;-62
2022/06/06 12:58:07;;;;;;;2.72;0.70;;;8.00;67.80;;;;;;5014263;28;20165;-62
2022/06/06 13:03:38;;;;;;;7.20;2.15;;;7.70;70.00;;;;;;5011507;28;20037;-62
2022/06/06 13:06:29;;;;;;;6.57;2.17;;;7.50;70.30;;;;;;5011354;28;20088;-62
2022/06/06 13:09:27;;;;;;;8.18;2.17;;;7.30;71.60;;;;;;4994981;28;20176;-63
2022/06/06 13:12:05;;;;;;;3.70;1.30;;;7.20;72.00;;;;;;4989661;28;20518;-63
2022/06/06 13:15:05;;;;;;;4.30;2.00;;;7.20;73.00;;;;;;5012136;28;20018;-63
2022/06/06 13:17:55;;;;;;;4.20;1.10;;;7.20;74.10;;;;;;5011449;28;20030;-63
2022/06/06 13:20:23;;;;;;;5.82;1.30;;;7.10;73.80;;;;;;5004967;28;20065;-63
2022/06/06 13:23:07;;;;;;;4.93;1.20;;;7.20;74.50;;;;;;4993156;28;20049;-62
2022/06/06 13:25:44;;;;;;;9.00;1.58;;;7.20;74.60;;;;;;4991781;28;20066;-62
2022/06/06 13:28:22;;;;;;;7.13;3.00;;;7.20;74.20;;;;;;5007514;28;20029;-62
2022/06/06 13:30:49;;;;;;;7.55;3.08;;;7.20;74.40;;;;;;5011087;28;20033;-62
2022/06/06 13:33:37;;;;;;;4.13;2.10;;;7.20;74.00;;;;;;5010593;28;20034;-62
2022/06/06 13:36:33;;;;;;;10.20;2.35;;;7.20;74.30;;;;;;4989775;28;20023;-64
2022/06/06 13:39:22;;;;;;;5.18;1.38;;;7.10;74.20;;;;;;4991826;28;20111;-62
2022/06/06 13:42:14;;;;;;;2.40;0.80;;;7.10;75.00;;;;;;4995072;28;20029;-62
2022/06/06 13:45:05;;;;;;;6.45;0.90;;;7.10;74.60;;;;;;5009533;28;20450;-62
2022/06/06 13:47:41;;;;;;;2.22;1.05;;;7.10;74.20;;;;;;5009456;28;20072;-63
2022/06/06 13:50:26;;;;;;;5.43;1.42;;;7.10;74.60;;;;;;5008906;28;20150;-63
2022/06/06 13:53:30;;;;;;;2.83;1.33;;;6.90;74.90;;;;;;5009466;28;20264;-62
2022/06/06 13:56:28;;;;;;;5.25;1.30;;;6.80;75.10;;;;;;4987458;28;20048;-63
2022/06/06 13:59:12;;;;;;;10.18;1.40;;;6.70;75.70;;;;;;5009287;28;20030;-62
2022/06/06 14:01:43;;;;;;;4.40;1.40;;;6.60;75.90;;;;;;5009165;28;20018;-63
2022/06/06 14:04:35;;;;;;;2.92;1.10;;;6.70;76.40;;;;;;5008802;28;20222;-63
2022/06/06 14:07:11;;;;;;;3.90;1.38;;;6.60;76.00;;;;;;5009526;28;20026;-63
2022/06/06 14:09:41;;;;;;;4.25;1.42;;;6.60;76.20;;;;;;5008791;28;20038;-62
2022/06/06 14:12:19;;;;;;;4.53;1.30;;;6.60;76.30;;;;;;5009070;28;20014;-62
2022/06/06 14:14:51;;;;;;;5.00;1.23;;;6.60;77.10;;;;;;5008461;28;20029;-63
2022/06/06 14:17:29;;;;;;;5.28;1.45;;;6.60;76.80;;;;;;5007834;28;20029;-63
2022/06/06 14:20:22;;;;;;;3.40;1.05;;;6.70;76.80;;;;;;5007279;28;20021;-63
2022/06/06 14:22:50;;;;;;;6.60;1.25;;;6.70;76.70;;;;;;5008699;28;20084;-63
2022/06/06 14:25:18;;;;;;;3.45;1.20;;;6.70;76.70;;;;;;5008735;28;20423;-63
2022/06/06 14:27:45;;;;;;;5.32;1.33;;;6.80;76.60;;;;;;5004764;28;20026;-63
2022/06/06 14:30:33;;;;;;;7.22;1.35;;;6.90;76.20;;;;;;5022912;28;20021;-63
2022/06/06 14:33:04;;;;;;;4.13;0.95;;;7.10;76.10;;;;;;5009028;28;20026;-63
2022/06/06 14:35:41;;;;;;;5.05;1.10;;;7.20;75.70;;;;;;5008779;28;20383;-63
2022/06/06 14:38:30;;;;;;;4.50;0.90;;;7.30;75.00;;;;;;5008435;28;20545;-62
2022/06/06 14:41:01;;;;;;;2.00;0.80;;;7.40;74.30;;;;;;5006588;28;20053;-63
2022/06/06 14:43:59;;;;;;;2.75;0.63;;;7.70;73.80;;;;;;5014141;28;20383;-63